Time;durP1;ratioP1;P1;durP2;ratioP2;P2;SDS_P1;SDS_P2;PMS_P1;PMS_P2;Temp;Humidity;BMP_temperature;BMP_pressure;BME280_temperature;BME280_humidity;BME280_pressure;Samples;Min_cycle;Max_cycle;Signal;HPM_P1;HPM_P2
2020/12/16 00:01:59;;;;;;;76.57;47.72;;;;;;;7.17;79.12;101851.66;5071479;28;20510;-63
2020/12/16 00:04:25;;;;;;;74.85;46.45;;;;;;;7.18;79.21;101847.28;5066207;28;20044;-63
2020/12/16 00:06:51;;;;;;;84.63;48.17;;;;;;;7.18;79.24;101844.66;5063410;28;20048;-63
2020/12/16 00:09:17;;;;;;;72.78;47.65;;;;;;;7.18;79.54;101840.28;5071033;28;20041;-63
2020/12/16 00:11:43;;;;;;;73.05;46.58;;;;;;;7.19;79.47;101843.78;5072891;28;20040;-63
2020/12/16 00:14:09;;;;;;;72.90;46.30;;;;;;;7.19;79.21;101847.22;5072890;28;20102;-64
2020/12/16 00:16:35;;;;;;;74.60;47.50;;;;;;;7.18;79.39;101849.88;5054357;28;20097;-63
2020/12/16 00:19:01;;;;;;;73.28;46.05;;;;;;;7.19;79.31;101846.38;5072333;28;20060;-63
2020/12/16 00:21:27;;;;;;;70.57;47.47;;;;;;;7.20;79.42;101850.72;5072901;28;20176;-65
2020/12/16 00:23:54;;;;;;;79.22;45.33;;;;;;;7.20;79.43;101861.16;5072789;28;20053;-63
2020/12/16 00:26:20;;;;;;;71.85;46.08;;;;;;;7.21;79.51;101859.38;5070365;28;20048;-64
2020/12/16 00:28:46;;;;;;;78.80;48.78;;;;;;;7.21;79.46;101870.69;5062815;28;20114;-64
2020/12/16 00:31:15;;;;;;;67.50;45.83;;;;;;;7.21;79.72;101870.69;5072554;28;20110;-62
2020/12/16 00:33:42;;;;;;;71.15;46.72;;;;;;;7.21;79.66;101875.91;5064991;28;20036;-63
2020/12/16 00:36:08;;;;;;;70.97;46.67;;;;;;;7.21;79.67;101864.59;5072594;28;20105;-63
2020/12/16 00:38:34;;;;;;;74.93;44.38;;;;;;;7.20;79.89;101876.81;5072552;28;20090;-63
2020/12/16 00:41:00;;;;;;;69.45;46.28;;;;;;;7.21;79.86;101872.44;5072431;28;20070;-63
2020/12/16 00:43:26;;;;;;;69.47;45.13;;;;;;;7.21;79.86;101878.50;5072345;28;20070;-63
2020/12/16 00:45:53;;;;;;;70.47;45.05;;;;;;;7.21;79.78;101880.28;5072314;28;20447;-62
2020/12/16 00:48:19;;;;;;;66.82;44.92;;;;;;;7.20;79.98;101882.03;5072411;28;20497;-63
2020/12/16 00:50:45;;;;;;;66.85;46.72;;;;;;;7.19;79.97;101888.16;5072256;28;20090;-63
2020/12/16 00:53:11;;;;;;;75.90;45.33;;;;;;;7.21;79.89;101880.28;5069731;28;20123;-63
2020/12/16 00:55:37;;;;;;;75.15;47.75;;;;;;;7.20;79.77;101874.22;5072276;28;20040;-63
2020/12/16 00:58:03;;;;;;;67.78;45.90;;;;;;;7.19;79.91;101877.72;5062675;28;20102;-64
2020/12/16 01:00:29;;;;;;;66.60;44.47;;;;;;;7.19;79.76;101885.53;5067539;28;20052;-62
2020/12/16 01:02:56;;;;;;;66.43;46.22;;;;;;;7.18;79.77;101884.66;5071904;28;20456;-63
2020/12/16 01:05:22;;;;;;;65.50;47.42;;;;;;;7.18;79.83;101884.66;5072394;28;20040;-65
2020/12/16 01:07:48;;;;;;;66.20;45.75;;;;;;;7.17;79.82;101885.59;5072324;28;20052;-64
2020/12/16 01:10:17;;;;;;;69.03;45.33;;;;;;;7.18;79.91;101897.72;5072493;28;20044;-65
2020/12/16 01:12:46;;;;;;;68.18;47.67;;;;;;;7.18;79.92;101908.16;5072173;28;20048;-65
2020/12/16 01:15:23;;;;;;;61.15;44.47;;;;;;;7.18;79.66;101915.13;5072128;28;20052;-63
2020/12/16 01:17:50;;;;;;;65.10;45.20;;;;;;;7.15;79.83;101915.22;5071641;28;20049;-63
2020/12/16 01:20:17;;;;;;;66.13;45.60;;;;;;;7.13;79.95;101912.63;5072015;28;20049;-64
2020/12/16 01:22:45;;;;;;;66.10;45.85;;;;;;;7.13;80.11;101915.25;5072045;28;20044;-65
2020/12/16 01:25:13;;;;;;;65.78;45.72;;;;;;;7.12;79.99;101918.78;5071814;28;20041;-63
2020/12/16 01:27:39;;;;;;;64.75;43.17;;;;;;;7.12;80.02;101928.34;5072042;28;20067;-63
2020/12/16 01:30:07;;;;;;;68.07;45.60;;;;;;;7.11;80.27;101917.03;5071781;28;20443;-65
2020/12/16 01:32:36;;;;;;;66.07;44.67;;;;;;;7.12;80.07;101910.94;5072006;28;20040;-63
2020/12/16 01:35:09;;;;;;;70.93;46.35;;;;;;;7.12;79.94;101915.28;5071793;28;20046;-63
2020/12/16 01:37:37;;;;;;;68.15;47.30;;;;;;;7.13;80.18;101904.78;5071854;28;20488;-63
2020/12/16 01:40:05;;;;;;;70.03;47.92;;;;;;;7.13;79.83;101904.78;5074233;28;20044;-63
2020/12/16 01:42:31;;;;;;;69.78;47.40;;;;;;;7.13;79.86;101907.41;5076189;28;20447;-65
2020/12/16 01:44:57;;;;;;;66.35;46.67;;;;;;;7.14;79.91;101914.34;5075777;28;20097;-64
2020/12/16 01:47:24;;;;;;;61.08;44.78;;;;;;;7.15;79.89;101913.47;5075624;28;20040;-64
2020/12/16 01:49:50;;;;;;;60.45;45.35;;;;;;;7.15;80.06;101915.22;5075762;28;20052;-63
2020/12/16 01:52:20;;;;;;;62.65;46.00;;;;;;;7.16;79.84;101909.97;5075604;28;20452;-64
2020/12/16 01:54:47;;;;;;;62.83;44.65;;;;;;;7.17;79.97;101921.25;5075758;28;20045;-64
2020/12/16 01:57:19;;;;;;;62.10;44.65;;;;;;;7.16;79.77;101919.53;5075413;28;20044;-64
2020/12/16 01:59:47;;;;;;;66.10;44.97;;;;;;;7.17;79.82;101918.63;5075557;28;20044;-64
2020/12/16 02:02:15;;;;;;;60.22;44.92;;;;;;;7.17;79.73;101918.63;5075341;28;20377;-63
2020/12/16 02:04:44;;;;;;;60.92;44.45;;;;;;;7.16;79.91;101909.97;5075384;28;20094;-64
2020/12/16 02:07:11;;;;;;;62.20;45.15;;;;;;;7.17;80.04;101911.69;5075357;28;20049;-63
2020/12/16 02:09:42;;;;;;;60.00;43.92;;;;;;;7.18;79.98;101907.31;5075162;28;20036;-65
2020/12/16 02:12:11;;;;;;;60.58;44.72;;;;;;;7.18;79.89;101907.31;5075280;28;20045;-64
2020/12/16 02:14:39;;;;;;;58.17;44.28;;;;;;;7.18;80.05;101902.94;5075167;28;20044;-63
2020/12/16 02:17:07;;;;;;;62.33;44.08;;;;;;;7.19;79.96;101906.41;5074845;28;20102;-64
2020/12/16 02:19:46;;;;;;;62.17;45.00;;;;;;;7.18;79.92;101902.09;5074774;28;20049;-63
2020/12/16 02:22:13;;;;;;;59.75;43.03;;;;;;;7.19;80.03;101898.59;5075073;28;20645;-63
2020/12/16 02:24:43;;;;;;;61.05;42.47;;;;;;;7.18;79.87;101897.72;5074911;28;20052;-63
2020/12/16 02:27:10;;;;;;;56.75;42.42;;;;;;;7.19;80.03;101893.38;5074928;28;20504;-63
2020/12/16 02:29:37;;;;;;;54.28;40.53;;;;;;;7.20;79.85;101892.47;5075057;28;20060;-62
2020/12/16 02:32:04;;;;;;;54.42;39.50;;;;;;;7.21;79.98;101895.94;5074735;28;20549;-62
2020/12/16 02:34:30;;;;;;;57.33;39.45;;;;;;;7.21;80.07;101904.63;5074706;28;20093;-62
2020/12/16 02:36:56;;;;;;;49.15;36.28;;;;;;;7.22;79.98;101908.09;5074854;28;20102;-64
2020/12/16 02:39:22;;;;;;;52.50;37.20;;;;;;;7.22;80.17;101900.28;5074914;28;20056;-62
2020/12/16 02:41:48;;;;;;;47.60;36.03;;;;;;;7.23;80.13;101899.38;5074669;28;20118;-65
2020/12/16 02:44:14;;;;;;;49.80;36.40;;;;;;;7.23;80.08;101900.22;5074660;28;20056;-62
2020/12/16 02:46:41;;;;;;;51.25;37.08;;;;;;;7.22;79.93;101908.09;5074766;28;20094;-64
2020/12/16 02:49:07;;;;;;;52.97;38.58;;;;;;;7.20;79.89;101915.97;5074443;28;20052;-63
2020/12/16 02:51:33;;;;;;;48.78;36.83;;;;;;;7.19;79.87;101907.28;5074189;28;20409;-62
2020/12/16 02:54:00;;;;;;;49.88;37.95;;;;;;;7.19;79.92;101907.28;5074451;28;20079;-62
2020/12/16 02:56:26;;;;;;;51.75;38.92;;;;;;;7.19;79.86;101914.25;5074661;28;20107;-63
2020/12/16 02:58:52;;;;;;;52.15;37.33;;;;;;;7.17;79.65;101921.25;5074511;28;20110;-63
2020/12/16 03:01:18;;;;;;;56.22;39.83;;;;;;;7.14;79.68;101921.34;5074498;28;20053;-63
2020/12/16 03:03:44;;;;;;;52.92;37.78;;;;;;;7.12;79.87;101924.00;5074098;28;20048;-64
2020/12/16 03:06:14;;;;;;;50.95;38.85;;;;;;;7.11;79.77;101927.50;5074422;28;20455;-64
2020/12/16 03:08:41;;;;;;;56.20;39.03;;;;;;;7.09;79.69;101939.69;5074280;28;20063;-63
2020/12/16 03:11:07;;;;;;;51.60;38.75;;;;;;;7.03;79.46;101953.75;5073930;28;20117;-62
2020/12/16 03:13:33;;;;;;;53.45;39.28;;;;;;;6.97;79.43;101951.28;5074149;28;20098;-63
2020/12/16 03:15:59;;;;;;;54.50;41.90;;;;;;;6.92;79.66;101953.13;5074072;28;20197;-63
2020/12/16 03:18:28;;;;;;;63.28;42.80;;;;;;;6.93;79.84;101952.25;5073696;28;20060;-63
2020/12/16 03:20:55;;;;;;;54.25;41.15;;;;;;;6.95;79.90;101947.00;5074016;28;20051;-64
2020/12/16 03:23:21;;;;;;;56.15;41.35;;;;;;;6.97;79.69;101953.03;5074132;28;20036;-63
2020/12/16 03:25:47;;;;;;;58.65;42.78;;;;;;;6.99;79.90;101961.69;5074061;28;20040;-64
2020/12/16 03:28:13;;;;;;;56.15;41.45;;;;;;;6.99;79.70;101965.13;5073739;28;20113;-63
2020/12/16 03:30:39;;;;;;;58.88;41.17;;;;;;;7.01;79.74;101971.19;5073805;28;20086;-64
2020/12/16 03:33:06;;;;;;;53.88;41.10;;;;;;;7.00;79.71;101966.88;5073646;28;20049;-63
2020/12/16 03:35:32;;;;;;;57.58;42.92;;;;;;;7.01;79.87;101960.75;5073836;28;20049;-64
2020/12/16 03:37:58;;;;;;;57.75;43.38;;;;;;;7.00;79.67;101964.25;5073740;28;20117;-64
2020/12/16 03:40:24;;;;;;;60.25;42.20;;;;;;;7.01;79.64;101971.19;5073662;28;20037;-63
2020/12/16 03:42:50;;;;;;;57.88;42.97;;;;;;;7.03;80.02;101973.75;5073843;28;20044;-63
2020/12/16 03:45:16;;;;;;;58.65;41.05;;;;;;;7.03;79.60;101979.88;5073415;28;20052;-63
2020/12/16 03:47:42;;;;;;;56.70;43.10;;;;;;;7.04;79.70;101975.50;5073599;28;20040;-64
2020/12/16 03:50:08;;;;;;;54.28;41.58;;;;;;;7.02;79.76;101975.53;5073258;28;20451;-62
2020/12/16 03:52:35;;;;;;;58.70;42.47;;;;;;;7.01;79.52;101971.19;5073540;28;20045;-62
2020/12/16 03:55:01;;;;;;;57.88;43.47;;;;;;;7.00;79.52;101973.84;5073445;28;20078;-63
2020/12/16 03:57:27;;;;;;;67.32;46.72;;;;;;;6.99;79.52;101975.56;5073207;28;20393;-62
2020/12/16 03:59:53;;;;;;;60.65;44.22;;;;;;;6.99;79.55;101967.75;5073062;28;20044;-63
2020/12/16 04:02:19;;;;;;;59.78;45.33;;;;;;;6.98;79.71;101968.66;5070598;28;20048;-63
2020/12/16 04:04:45;;;;;;;60.38;44.08;;;;;;;6.98;79.79;101965.19;5068082;28;20044;-63
2020/12/16 04:07:11;;;;;;;57.63;42.55;;;;;;;6.99;79.57;101961.69;5069026;28;20045;-63
2020/12/16 04:09:37;;;;;;;58.28;43.20;;;;;;;6.98;79.50;101973.88;5069792;28;20068;-63
2020/12/16 04:12:03;;;;;;;55.50;41.63;;;;;;;6.98;79.52;101983.44;5069745;28;20048;-63
2020/12/16 04:14:29;;;;;;;59.55;43.72;;;;;;;6.97;79.58;101984.34;5069649;28;20074;-65
2020/12/16 04:16:56;;;;;;;58.05;42.45;;;;;;;6.93;79.23;101995.72;5069379;28;20040;-63
2020/12/16 04:19:22;;;;;;;61.30;41.70;;;;;;;6.89;79.07;101999.31;5069269;28;20496;-63
2020/12/16 04:21:53;;;;;;;56.08;41.25;;;;;;;6.83;79.36;102000.28;5069602;28;20036;-63
2020/12/16 04:24:20;;;;;;;56.58;42.53;;;;;;;6.82;79.29;102001.19;5069731;28;20074;-63
2020/12/16 04:26:46;;;;;;;57.97;42.00;;;;;;;6.82;79.50;102011.63;5069619;28;20037;-63
2020/12/16 04:29:12;;;;;;;58.70;41.60;;;;;;;6.82;79.54;102015.09;5069053;28;20049;-63
2020/12/16 04:31:38;;;;;;;55.92;41.75;;;;;;;6.85;79.65;102022.00;5069295;28;20102;-63
2020/12/16 04:34:04;;;;;;;50.70;41.10;;;;;;;6.86;79.66;102015.88;5069411;28;20558;-64
2020/12/16 04:36:30;;;;;;;51.80;39.00;;;;;;;6.88;79.71;102014.09;5069527;28;20040;-63
2020/12/16 04:38:56;;;;;;;53.60;41.67;;;;;;;6.91;79.57;102010.56;5069108;28;20083;-63
2020/12/16 04:41:22;;;;;;;57.80;42.30;;;;;;;6.93;79.63;102014.00;5069214;28;20053;-63
2020/12/16 04:43:51;;;;;;;55.63;41.47;;;;;;;6.93;79.82;102009.66;5068880;28;20044;-63
2020/12/16 04:46:20;;;;;;;56.88;41.80;;;;;;;6.92;79.70;102007.94;5069148;28;20443;-63
2020/12/16 04:48:46;;;;;;;59.22;41.78;;;;;;;6.90;79.91;102014.94;5069236;28;20048;-63
2020/12/16 04:51:16;;;;;;;59.72;42.08;;;;;;;6.93;80.04;102014.00;5069258;28;20064;-63
2020/12/16 04:53:45;;;;;;;57.22;41.45;;;;;;;6.93;80.10;102014.88;5068979;28;20045;-64
2020/12/16 04:56:12;;;;;;;59.80;42.95;;;;;;;6.95;79.98;102007.00;5068853;28;20045;-64
2020/12/16 04:58:39;;;;;;;56.50;41.83;;;;;;;6.97;80.25;102010.44;5068684;28;20045;-63
2020/12/16 05:01:05;;;;;;;57.42;42.08;;;;;;;6.98;80.10;102010.41;5068905;28;20457;-62
2020/12/16 05:03:32;;;;;;;55.53;39.22;;;;;;;7.00;80.07;102026.88;5069011;28;20067;-62
2020/12/16 05:05:58;;;;;;;58.15;41.92;;;;;;;7.00;80.31;102026.88;5068799;28;20098;-62
2020/12/16 05:08:25;;;;;;;57.72;40.80;;;;;;;7.00;80.28;102024.28;5068866;28;20498;-63
2020/12/16 05:10:51;;;;;;;61.80;39.50;;;;;;;7.02;80.16;102029.47;5068749;28;20095;-62
2020/12/16 05:13:19;;;;;;;56.80;41.53;;;;;;;7.02;80.28;102016.41;5068675;28;20452;-62
2020/12/16 05:15:48;;;;;;;56.28;40.38;;;;;;;7.03;80.26;102018.13;5068639;28;20496;-62
2020/12/16 05:18:22;;;;;;;55.35;40.60;;;;;;;7.04;80.43;102014.63;5067883;28;20044;-62
2020/12/16 05:20:50;;;;;;;55.95;40.65;;;;;;;7.06;80.43;102023.31;5068661;28;20044;-62
2020/12/16 05:23:18;;;;;;;50.88;40.63;;;;;;;7.05;80.30;102005.91;5068698;28;20126;-63
2020/12/16 05:26:04;;;;;;;58.50;41.15;;;;;;;7.06;80.42;102004.16;5068251;28;20040;-63
2020/12/16 05:28:39;;;;;;;60.60;42.53;;;;;;;7.06;80.36;101999.81;5068831;28;20066;-62
2020/12/16 05:31:08;;;;;;;53.63;39.67;;;;;;;7.08;80.38;101994.56;5068640;28;20040;-62
2020/12/16 05:33:46;;;;;;;53.92;38.50;;;;;;;7.07;80.43;101996.28;5068442;28;20106;-63
2020/12/16 05:36:12;;;;;;;56.03;40.42;;;;;;;7.09;80.38;101998.88;5068594;28;20053;-63
2020/12/16 05:38:50;;;;;;;52.60;40.00;;;;;;;7.08;80.42;102005.84;5068344;28;20101;-63
2020/12/16 05:41:25;;;;;;;56.95;41.22;;;;;;;7.08;80.55;102000.63;5068691;28;20467;-63
2020/12/16 05:43:51;;;;;;;55.45;41.65;;;;;;;7.08;80.48;102003.22;5068549;28;20037;-63
2020/12/16 05:46:24;;;;;;;57.63;41.72;;;;;;;7.08;80.48;102002.38;5068641;28;20041;-63
2020/12/16 05:48:51;;;;;;;57.75;40.72;;;;;;;7.08;80.62;101984.13;5068394;28;20505;-63
2020/12/16 05:51:17;;;;;;;54.55;41.38;;;;;;;7.10;80.43;101985.78;5067883;28;20467;-63
2020/12/16 05:53:43;;;;;;;54.53;40.10;;;;;;;7.10;80.51;101977.97;5068381;28;20048;-63
2020/12/16 05:56:10;;;;;;;55.25;40.85;;;;;;;7.11;80.51;101978.81;5068092;28;20410;-63
2020/12/16 05:58:36;;;;;;;57.40;40.30;;;;;;;7.11;80.68;101979.69;5068469;28;20044;-63
2020/12/16 06:01:06;;;;;;;54.63;40.85;;;;;;;7.13;80.71;101979.66;5065674;28;20123;-63
2020/12/16 06:03:35;;;;;;;51.83;39.58;;;;;;;7.12;80.62;101972.72;5068345;28;20056;-63
2020/12/16 06:06:03;;;;;;;56.70;39.65;;;;;;;7.13;80.49;101974.44;5068156;28;20056;-63
2020/12/16 06:08:40;;;;;;;57.15;39.22;;;;;;;7.14;80.81;101970.94;5056925;28;20103;-62
2020/12/16 06:11:11;;;;;;;53.25;39.00;;;;;;;7.15;80.62;101964.81;5066931;28;20102;-64
2020/12/16 06:13:44;;;;;;;55.13;39.65;;;;;;;7.16;80.77;101975.22;5068299;28;20044;-65
2020/12/16 06:16:10;;;;;;;52.75;38.85;;;;;;;7.17;80.82;101978.69;5067939;28;20080;-66
2020/12/16 06:18:40;;;;;;;52.88;39.28;;;;;;;7.18;80.74;101985.63;5067837;28;20138;-65
2020/12/16 06:21:07;;;;;;;47.00;35.75;;;;;;;7.18;80.86;101978.63;5068521;28;20493;-63
2020/12/16 06:23:39;;;;;;;47.88;36.17;;;;;;;7.18;80.74;101968.19;5068047;28;20037;-70
2020/12/16 06:26:16;;;;;;;48.97;34.65;;;;;;;7.18;80.76;101957.75;5070402;28;20489;-64
2020/12/16 06:28:43;;;;;;;52.80;33.60;;;;;;;7.19;81.13;101956.03;5071593;28;20102;-69
2020/12/16 06:31:35;;;;;;;44.85;32.72;;;;;;;7.20;80.88;101952.53;5071668;28;20098;-67
2020/12/16 06:34:05;;;;;;;43.45;31.80;;;;;;;7.20;80.91;101952.53;5070950;28;20051;-69
2020/12/16 06:36:37;;;;;;;41.78;31.17;;;;;;;7.20;80.69;101947.31;5071603;28;20585;-70
2020/12/16 06:39:17;;;;;;;41.47;29.70;;;;;;;7.22;80.80;101955.09;5071561;28;20045;-68
2020/12/16 06:41:55;;;;;;;38.38;28.95;;;;;;;7.22;80.70;101957.69;5071466;28;20117;-69
2020/12/16 06:44:21;;;;;;;37.17;27.10;;;;;;;7.24;80.85;101963.72;5071458;28;20048;-71
2020/12/16 06:46:53;;;;;;;38.50;28.92;;;;;;;7.24;80.87;101968.94;5071090;28;20040;-67
2020/12/16 06:49:22;;;;;;;43.10;29.20;;;;;;;7.23;80.66;101978.53;5071269;28;20041;-65
2020/12/16 06:51:59;;;;;;;58.83;28.67;;;;;;;7.30;80.90;101981.88;5071477;28;20053;-64
2020/12/16 06:54:35;;;;;;;40.00;27.67;;;;;;;7.51;82.71;101983.13;5061124;28;20086;-78
2020/12/16 06:57:10;;;;;;;;;;;;;;;7.49;82.24;101996.22;5057240;28;20045;-73
2020/12/16 06:59:56;;;;;;;37.25;25.48;;;;;;;7.46;81.49;101998.91;5053577;28;20368;-69
2020/12/16 07:02:25;;;;;;;38.35;28.25;;;;;;;7.42;81.24;102007.72;5056457;28;20455;-79
2020/12/16 07:04:52;;;;;;;39.90;28.98;;;;;;;7.39;81.09;102009.53;5062783;28;20238;-75
2020/12/16 07:07:45;;;;;;;44.55;29.52;;;;;;;7.35;80.94;102024.41;5056619;28;20090;-79
2020/12/16 07:10:37;;;;;;;44.72;29.90;;;;;;;7.32;80.79;102027.09;5066416;28;20052;-77
2020/12/16 07:13:14;;;;;;;45.22;31.05;;;;;;;7.29;80.92;102035.00;5056688;28;20102;-71
2020/12/16 07:15:55;;;;;;;45.78;31.33;;;;;;;7.27;80.83;102055.06;5068268;28;20450;-67
2020/12/16 07:18:41;;;;;;;45.65;32.35;;;;;;;7.25;80.68;102069.88;5061018;28;20191;-77
2020/12/16 07:21:07;;;;;;;46.75;35.50;;;;;;;7.19;80.46;102083.94;5070774;28;20496;-66
2020/12/16 07:23:54;;;;;;;54.58;37.25;;;;;;;7.13;80.50;102087.53;5070845;28;20036;-68
2020/12/16 07:26:32;;;;;;;55.67;38.03;;;;;;;7.09;80.77;102096.31;5071253;28;20455;-78
2020/12/16 07:29:00;;;;;;;54.03;39.47;;;;;;;7.07;80.89;102097.22;5070748;28;20056;-68
2020/12/16 07:31:26;;;;;;;53.65;40.17;;;;;;;7.05;80.92;102112.06;5072011;28;20044;-77
2020/12/16 07:33:54;;;;;;;62.35;40.75;;;;;;;7.02;81.30;102107.75;5071066;28;20088;-78
2020/12/16 07:36:21;;;;;;;59.35;40.60;;;;;;;7.02;81.11;102108.63;5070145;28;20416;-60
2020/12/16 07:38:56;;;;;;;61.00;42.13;;;;;;;7.08;81.48;102109.41;5069477;28;20040;-75
2020/12/16 07:41:27;;;;;;;62.73;43.43;;;;;;;7.07;81.45;102113.75;5070194;28;20493;-79
2020/12/16 07:43:54;;;;;;;61.30;42.55;;;;;;;7.05;81.42;102125.09;5069713;28;20336;-77
2020/12/16 07:46:23;;;;;;;60.30;41.83;;;;;;;6.98;81.48;102133.09;5069835;28;20045;-74
2020/12/16 07:48:49;;;;;;;58.25;43.03;;;;;;;6.93;81.76;102126.22;5069441;28;20106;-67
2020/12/16 07:51:18;;;;;;;60.58;43.70;;;;;;;6.91;81.98;102128.84;5070062;28;20107;-76
2020/12/16 07:53:49;;;;;;;60.42;44.63;;;;;;;6.93;81.87;102140.13;5069904;28;20090;-76
2020/12/16 07:56:17;;;;;;;63.50;44.53;;;;;;;6.96;81.84;102131.38;5058521;28;20101;-76
2020/12/16 07:58:44;;;;;;;64.05;44.75;;;;;;;6.99;82.13;102136.53;5069375;28;20447;-75
2020/12/16 08:01:16;;;;;;;59.60;44.30;;;;;;;7.01;82.09;102133.00;5069502;28;20044;-77
2020/12/16 08:03:43;;;;;;;67.47;43.47;;;;;;;7.06;81.92;102137.28;5069723;28;20044;-75
2020/12/16 08:06:09;;;;;;;61.38;44.70;;;;;;;7.08;81.91;102138.97;5062986;28;20045;-74
2020/12/16 08:08:51;;;;;;;62.40;44.15;;;;;;;7.10;81.76;102149.41;5061694;28;20106;-71
2020/12/16 08:11:21;;;;;;;60.83;44.33;;;;;;;7.09;81.83;102155.50;5066107;28;20041;-78
2020/12/16 08:13:48;;;;;;;62.08;44.63;;;;;;;7.09;81.77;102156.34;5064845;28;20377;-71
2020/12/16 08:16:15;;;;;;;65.50;44.85;;;;;;;7.10;82.00;102149.41;5057363;28;20041;-77
2020/12/16 08:18:45;;;;;;;59.47;43.28;;;;;;;7.11;82.20;102143.25;5057997;28;20140;-76
2020/12/16 08:21:19;;;;;;;62.13;43.28;;;;;;;7.14;81.88;102151.06;5063366;28;20087;-78
2020/12/16 08:23:47;;;;;;;61.47;45.45;;;;;;;7.17;82.09;102145.75;5068860;28;20041;-79
2020/12/16 08:26:13;;;;;;;62.28;43.95;;;;;;;7.19;81.82;102143.97;5058597;28;20049;-78
2020/12/16 08:28:39;;;;;;;61.47;45.17;;;;;;;7.22;81.81;102146.53;5062625;28;20497;-77
2020/12/16 08:31:06;;;;;;;63.17;45.42;;;;;;;7.23;81.89;102148.25;5069054;28;20041;-71
2020/12/16 08:33:33;;;;;;;63.03;46.90;;;;;;;7.24;81.94;102156.94;5069117;28;20457;-77
2020/12/16 08:36:01;;;;;;;61.47;45.65;;;;;;;7.24;82.13;102156.94;5068751;28;20048;-78
2020/12/16 08:38:30;;;;;;;61.95;45.13;;;;;;;7.27;82.03;102162.09;5058524;28;20045;-77
2020/12/16 08:40:59;;;;;;;60.40;44.45;;;;;;;7.29;82.24;102147.28;5062638;28;20118;-73
2020/12/16 08:43:28;;;;;;;66.85;46.13;;;;;;;7.32;82.19;102148.06;5059390;28;20104;-72
2020/12/16 08:46:15;;;;;;;62.10;44.88;;;;;;;7.35;82.30;102148.00;5048350;28;20052;-71
2020/12/16 08:48:41;;;;;;;59.95;43.00;;;;;;;7.39;82.14;102158.38;5052632;28;20052;-74
2020/12/16 08:51:12;;;;;;;58.42;44.92;;;;;;;7.42;82.32;102156.56;5069578;28;20047;-77
2020/12/16 08:53:55;;;;;;;64.95;45.78;;;;;;;7.47;82.14;102156.47;5068829;28;20110;-69
2020/12/16 08:56:43;;;;;;;69.22;49.13;;;;;;;7.50;82.21;102164.25;5068593;28;20105;-77
2020/12/16 08:59:22;;;;;;;61.70;43.95;;;;;;;7.53;82.30;102179.88;5067732;28;20044;-67
2020/12/16 09:01:53;;;;;;;63.47;44.58;;;;;;;7.56;82.37;102185.03;5061177;28;20044;-67
2020/12/16 09:04:27;;;;;;;59.88;44.90;;;;;;;7.61;82.38;102174.47;5068080;28;20373;-66
2020/12/16 09:07:09;;;;;;;63.15;45.67;;;;;;;7.64;82.19;102177.00;5068141;28;20052;-73
2020/12/16 09:09:53;;;;;;;54.80;42.45;;;;;;;7.70;81.89;102163.81;5064270;28;20094;-76
2020/12/16 09:12:22;;;;;;;59.00;44.72;;;;;;;7.72;82.24;102167.28;5068535;28;20133;-67
2020/12/16 09:14:53;;;;;;;55.88;43.47;;;;;;;7.75;82.09;102174.19;5056539;28;20492;-71
2020/12/16 09:17:22;;;;;;;60.63;44.22;;;;;;;7.78;82.08;102181.94;5058385;28;20045;-74
2020/12/16 09:19:48;;;;;;;59.03;43.92;;;;;;;7.80;82.09;102178.41;5051037;28;20045;-74
2020/12/16 09:22:15;;;;;;;60.45;45.78;;;;;;;7.83;82.25;102170.50;5056013;28;20481;-75
2020/12/16 09:24:41;;;;;;;60.78;43.80;;;;;;;7.89;81.99;102166.03;5067700;28;20045;-76
2020/12/16 09:27:09;;;;;;;61.50;44.38;;;;;;;7.92;81.96;102166.84;5058379;28;20397;-75
2020/12/16 09:29:45;;;;;;;57.03;43.78;;;;;;;7.95;81.96;102164.16;5068567;28;20044;-67
2020/12/16 09:32:24;;;;;;;56.80;43.90;;;;;;;7.96;82.08;102154.53;5055138;28;20198;-76
2020/12/16 09:34:53;;;;;;;57.08;43.15;;;;;;;7.97;81.85;102154.53;5068588;28;20053;-76
2020/12/16 09:37:26;;;;;;;60.15;43.30;;;;;;;7.98;81.82;102148.38;5068291;28;20412;-73
2020/12/16 09:40:09;;;;;;;58.60;43.22;;;;;;;8.00;81.93;102157.06;5068097;28;20045;-73
2020/12/16 09:42:35;;;;;;;59.63;44.95;;;;;;;8.02;81.81;102162.25;5057386;28;20048;-71
2020/12/16 09:45:18;;;;;;;58.78;44.50;;;;;;;8.04;81.95;102160.47;5068020;28;20102;-70
2020/12/16 09:47:46;;;;;;;56.83;42.05;;;;;;;8.07;81.94;102168.22;5067861;28;20508;-77
2020/12/16 09:50:13;;;;;;;56.63;43.42;;;;;;;8.14;81.59;102171.56;5067793;28;20107;-70
2020/12/16 09:52:40;;;;;;;61.20;44.83;;;;;;;8.19;81.70;102167.09;5068551;28;20455;-76
2020/12/16 09:55:20;;;;;;;60.60;43.80;;;;;;;8.32;81.72;102165.88;5068015;28;20551;-67
2020/12/16 09:57:59;;;;;;;55.10;42.53;;;;;;;8.52;81.36;102155.88;5055997;28;20044;-77
2020/12/16 10:00:26;;;;;;;56.83;41.50;;;;;;;8.70;81.22;102146.69;5068893;28;20052;-69
2020/12/16 10:03:06;;;;;;;57.45;42.60;;;;;;;8.74;81.14;102141.31;5072407;28;20098;-78
2020/12/16 10:05:33;;;;;;;51.72;37.72;;;;;;;8.81;80.81;102136.78;5070697;28;20488;-69
2020/12/16 10:08:00;;;;;;;52.08;40.42;;;;;;;8.83;80.58;102135.00;5071501;28;20053;-68
2020/12/16 10:10:31;;;;;;;48.38;36.80;;;;;;;8.82;80.53;102121.06;5071726;28;20048;-68
2020/12/16 10:12:57;;;;;;;54.42;38.03;;;;;;;8.80;80.38;102122.84;5071501;28;20040;-68
2020/12/16 10:15:27;;;;;;;53.33;39.95;;;;;;;8.83;80.08;102132.38;5071864;28;20110;-77
2020/12/16 10:17:55;;;;;;;52.13;38.15;;;;;;;8.88;79.89;102133.09;5067316;28;20501;-69
2020/12/16 10:20:22;;;;;;;50.53;37.88;;;;;;;8.95;79.83;102123.31;5071615;28;20064;-78
2020/12/16 10:22:48;;;;;;;48.70;37.13;;;;;;;9.02;79.64;102124.88;5070867;28;20041;-76
2020/12/16 10:25:15;;;;;;;49.67;37.40;;;;;;;9.06;79.57;102110.78;5058309;28;20048;-76
2020/12/16 10:27:41;;;;;;;48.67;36.20;;;;;;;9.08;79.55;102121.25;5071388;28;20044;-70
2020/12/16 10:30:07;;;;;;;41.88;32.85;;;;;;;9.09;79.38;102129.06;5071326;28;20044;-72
2020/12/16 10:32:35;;;;;;;44.53;34.05;;;;;;;9.07;79.20;102128.22;5071323;28;20055;-76
2020/12/16 10:35:03;;;;;;;43.72;33.65;;;;;;;9.07;78.98;102117.75;5066719;28;20049;-71
2020/12/16 10:37:29;;;;;;;47.55;34.05;;;;;;;9.08;78.74;102121.25;5070770;28;20102;-73
2020/12/16 10:39:55;;;;;;;45.35;34.97;;;;;;;9.09;78.32;102120.31;5070471;28;20109;-75
2020/12/16 10:42:22;;;;;;;46.38;35.08;;;;;;;9.10;78.27;102119.41;5071254;28;20052;-71
2020/12/16 10:44:49;;;;;;;41.88;33.67;;;;;;;9.15;77.86;102114.91;5070559;28;20718;-70
2020/12/16 10:47:16;;;;;;;47.67;34.70;;;;;;;9.17;77.57;102100.03;5070664;28;20097;-73
2020/12/16 10:49:42;;;;;;;47.20;34.95;;;;;;;9.18;77.26;102100.88;5071251;28;20412;-75
2020/12/16 10:52:12;;;;;;;49.75;35.10;;;;;;;9.21;77.09;102109.50;5070839;28;20090;-75
2020/12/16 10:54:39;;;;;;;51.90;36.08;;;;;;;9.22;77.19;102100.75;5064697;28;20056;-75
2020/12/16 10:57:05;;;;;;;47.25;36.58;;;;;;;9.27;77.19;102095.38;5054300;28;20045;-68
2020/12/16 10:59:32;;;;;;;45.42;33.15;;;;;;;9.32;77.26;102086.47;5052140;28;20400;-76
2020/12/16 11:02:09;;;;;;;45.78;34.17;;;;;;;9.39;76.81;102094.16;5059746;28;20512;-75
2020/12/16 11:04:35;;;;;;;42.33;31.60;;;;;;;9.38;76.77;102095.91;5053122;28;20092;-71
2020/12/16 11:07:05;;;;;;;41.72;31.70;;;;;;;9.36;76.65;102086.38;5051841;28;20064;-69
2020/12/16 11:09:31;;;;;;;42.65;31.67;;;;;;;9.32;76.65;102086.47;5070526;28;20048;-72
2020/12/16 11:11:57;;;;;;;47.45;35.95;;;;;;;9.34;76.72;102088.19;5070552;28;20103;-76
2020/12/16 11:14:25;;;;;;;47.22;35.42;;;;;;;9.32;76.37;102096.09;5066489;28;20053;-68
2020/12/16 11:16:53;;;;;;;120.80;81.97;;;;;;;9.35;76.10;102093.38;5068779;28;20044;-68
2020/12/16 11:19:19;;;;;;;63.72;45.10;;;;;;;9.36;75.79;102083.75;5070332;28;20044;-77
2020/12/16 11:21:48;;;;;;;41.03;30.35;;;;;;;9.38;75.89;102085.41;5070592;28;20041;-77
2020/12/16 11:24:18;;;;;;;44.08;30.33;;;;;;;9.42;75.75;102092.31;5070611;28;20550;-71
2020/12/16 11:26:51;;;;;;;41.00;28.55;;;;;;;9.51;75.39;102090.28;5053701;28;20084;-73